Time;durP1;ratioP1;P1;durP2;ratioP2;P2;SDS_P1;SDS_P2;PMS_P1;PMS_P2;Temp;Humidity;BMP_temperature;BMP_pressure;BME280_temperature;BME280_humidity;BME280_pressure;Samples;Min_cycle;Max_cycle;Signal;HPM_P1;HPM_P2
2023/03/23 00:01:06;;;;;;;0.00;0.00;;;13.90;90.30;;;;;;4962734;28;20184;-60
2023/03/23 00:03:32;;;;;;;0.00;0.00;;;13.80;90.50;;;;;;4969732;28;20212;-60
2023/03/23 00:06:04;;;;;;;0.00;0.00;;;13.80;90.60;;;;;;4956152;28;20202;-59
2023/03/23 00:08:37;;;;;;;0.00;0.00;;;13.80;90.80;;;;;;4957447;28;20184;-60
2023/03/23 00:11:07;;;;;;;0.00;0.00;;;13.80;90.70;;;;;;4972579;28;20187;-60
2023/03/23 00:13:33;;;;;;;0.00;0.00;;;13.70;90.70;;;;;;4972630;28;20235;-60
2023/03/23 00:15:58;;;;;;;0.00;0.00;;;13.70;90.70;;;;;;4972708;28;20191;-60
2023/03/23 00:18:24;;;;;;;0.00;0.00;;;13.70;90.80;;;;;;4972054;28;20232;-59
2023/03/23 00:20:52;;;;;;;0.00;0.00;;;13.70;90.80;;;;;;4972636;28;20825;-60
2023/03/23 00:23:19;;;;;;;0.00;0.00;;;13.70;90.80;;;;;;4972560;28;20219;-60
2023/03/23 00:25:58;;;;;;;0.00;0.00;;;13.70;90.90;;;;;;4972717;28;20191;-59
2023/03/23 00:28:26;;;;;;;0.00;0.00;;;13.70;91.00;;;;;;4972505;28;20552;-59
2023/03/23 00:31:03;;;;;;;0.00;0.00;;;13.70;91.10;;;;;;4972435;28;20176;-60
2023/03/23 00:33:37;;;;;;;0.00;0.00;;;13.60;91.30;;;;;;4963814;28;20639;-60
2023/03/23 00:36:04;;;;;;;0.00;0.00;;;13.60;91.30;;;;;;4972384;28;20612;-59
2023/03/23 00:38:29;;;;;;;0.00;0.00;;;13.60;91.30;;;;;;4972154;28;20180;-60
2023/03/23 00:40:57;;;;;;;0.00;0.00;;;13.60;91.10;;;;;;4971864;28;20550;-60
2023/03/23 00:43:25;;;;;;;0.00;0.00;;;13.60;91.20;;;;;;4976798;28;20219;-60
2023/03/23 00:45:52;;;;;;;0.00;0.00;;;13.50;91.00;;;;;;4971975;28;20195;-60
2023/03/23 00:48:22;;;;;;;0.00;0.00;;;13.60;90.90;;;;;;4971914;28;20188;-60
2023/03/23 00:50:48;;;;;;;0.00;0.00;;;13.60;90.80;;;;;;4957232;28;20208;-60
2023/03/23 00:53:15;;;;;;;0.00;0.00;;;13.60;90.60;;;;;;4971466;28;20934;-60
2023/03/23 00:55:45;;;;;;;0.00;0.00;;;13.60;90.50;;;;;;4971583;28;20180;-60
2023/03/23 00:58:12;;;;;;;0.00;0.00;;;13.70;90.40;;;;;;4971811;28;20183;-60
2023/03/23 01:00:39;;;;;;;0.00;0.00;;;13.70;90.30;;;;;;4971641;28;20204;-60
2023/03/23 01:03:05;;;;;;;0.00;0.00;;;13.70;90.10;;;;;;4971649;28;20212;-60
2023/03/23 01:05:35;;;;;;;0.00;0.00;;;13.80;90.00;;;;;;4971937;28;20183;-59
2023/03/23 01:08:01;;;;;;;0.00;0.00;;;13.80;90.00;;;;;;4971485;28;20189;-60
2023/03/23 01:10:27;;;;;;;0.00;0.00;;;13.80;89.60;;;;;;4971726;28;20315;-60
2023/03/23 01:12:54;;;;;;;0.00;0.00;;;13.80;89.40;;;;;;4971613;28;20300;-60
2023/03/23 01:15:20;;;;;;;0.00;0.00;;;13.90;89.10;;;;;;4971561;28;20266;-60
2023/03/23 01:17:46;;;;;;;0.00;0.00;;;13.90;89.30;;;;;;4971473;28;20234;-60
2023/03/23 01:20:14;;;;;;;0.00;0.00;;;13.90;89.00;;;;;;4971753;28;20263;-60
2023/03/23 01:22:41;;;;;;;0.00;0.00;;;13.90;89.20;;;;;;4971343;28;20216;-60
2023/03/23 01:25:08;;;;;;;0.00;0.00;;;14.00;89.10;;;;;;4971739;28;20211;-60
2023/03/23 01:27:33;;;;;;;0.45;0.45;;;14.00;89.10;;;;;;4971488;28;20190;-60
2023/03/23 01:29:59;;;;;;;0.00;0.00;;;14.00;88.90;;;;;;4971460;28;20184;-60
2023/03/23 01:32:24;;;;;;;0.00;0.00;;;14.00;88.90;;;;;;4971430;28;20199;-59
2023/03/23 01:34:50;;;;;;;0.00;0.00;;;14.00;88.80;;;;;;4971106;28;20267;-59
2023/03/23 01:37:16;;;;;;;0.00;0.00;;;14.00;88.60;;;;;;4971503;28;20558;-59
2023/03/23 01:39:42;;;;;;;0.00;0.00;;;14.00;88.50;;;;;;4971302;28;20184;-59
2023/03/23 01:42:09;;;;;;;0.00;0.00;;;14.00;88.60;;;;;;4971499;28;20212;-60
2023/03/23 01:44:35;;;;;;;0.00;0.00;;;14.00;88.40;;;;;;4984972;28;20233;-60
2023/03/23 01:47:00;;;;;;;0.00;0.00;;;14.00;88.20;;;;;;4967300;28;20203;-60
2023/03/23 01:49:47;;;;;;;0.00;0.00;;;14.00;88.30;;;;;;4971384;28;20663;-60
2023/03/23 01:52:23;;;;;;;0.00;0.00;;;14.00;88.40;;;;;;4971386;28;20279;-59
2023/03/23 01:54:51;;;;;;;0.00;0.00;;;14.00;88.40;;;;;;4971339;28;20592;-60
2023/03/23 01:57:18;;;;;;;0.00;0.00;;;14.00;88.60;;;;;;4971144;28;20176;-60
2023/03/23 01:59:47;;;;;;;0.00;0.00;;;14.00;88.70;;;;;;4971134;28;20230;-60
2023/03/23 02:02:14;;;;;;;0.00;0.00;;;14.00;89.20;;;;;;4971503;28;20212;-60
2023/03/23 02:04:41;;;;;;;0.00;0.00;;;13.90;89.10;;;;;;4971056;28;20224;-59
2023/03/23 02:07:08;;;;;;;0.00;0.00;;;13.90;89.30;;;;;;4973231;28;20203;-59
2023/03/23 02:09:34;;;;;;;0.00;0.00;;;13.90;89.50;;;;;;4973818;28;20188;-59
2023/03/23 02:11:59;;;;;;;0.00;0.00;;;13.90;89.70;;;;;;4974844;28;20652;-59
2023/03/23 02:14:28;;;;;;;0.00;0.00;;;13.90;89.90;;;;;;4975033;28;20195;-59
2023/03/23 02:17:06;;;;;;;0.00;0.00;;;13.90;90.00;;;;;;4975029;28;20184;-59
2023/03/23 02:19:46;;;;;;;0.00;0.00;;;13.90;90.10;;;;;;4975053;28;20184;-59
2023/03/23 02:22:31;;;;;;;0.00;0.00;;;13.90;90.30;;;;;;4974744;28;20235;-59
2023/03/23 02:25:22;;;;;;;0.00;0.00;;;13.90;90.60;;;;;;4974771;28;20238;-59
2023/03/23 02:28:07;;;;;;;0.00;0.00;;;13.80;90.60;;;;;;4975092;28;20267;-59
2023/03/23 02:30:54;;;;;;;0.00;0.00;;;13.80;90.80;;;;;;4974998;28;20576;-59
2023/03/23 02:33:50;;;;;;;0.05;0.05;;;13.80;90.80;;;;;;4960220;28;20179;-58
2023/03/23 02:36:43;;;;;;;0.00;0.00;;;13.80;90.70;;;;;;4974179;28;20718;-59
2023/03/23 02:39:47;;;;;;;0.00;0.00;;;13.80;90.70;;;;;;4974549;28;20185;-59
2023/03/23 02:42:16;;;;;;;0.00;0.00;;;13.80;90.80;;;;;;4951526;28;20575;-59
2023/03/23 02:44:44;;;;;;;0.00;0.00;;;13.80;90.70;;;;;;4974759;28;20184;-59
2023/03/23 02:47:18;;;;;;;0.00;0.00;;;13.80;90.80;;;;;;4974471;28;20168;-59
2023/03/23 02:49:46;;;;;;;0.00;0.00;;;13.80;90.80;;;;;;4957232;28;20283;-59
2023/03/23 02:52:17;;;;;;;0.00;0.00;;;13.80;90.80;;;;;;4974311;28;20645;-59
2023/03/23 02:54:45;;;;;;;0.00;0.00;;;13.90;90.90;;;;;;4974380;28;20234;-61
2023/03/23 02:57:10;;;;;;;0.00;0.00;;;13.90;90.80;;;;;;4974072;28;20176;-61
2023/03/23 02:59:36;;;;;;;0.00;0.00;;;13.90;90.70;;;;;;4974241;28;20176;-60
2023/03/23 03:02:18;;;;;;;0.00;0.00;;;13.90;90.80;;;;;;4974106;28;20212;-60
2023/03/23 03:05:12;;;;;;;0.00;0.00;;;13.90;90.80;;;;;;4975728;28;20191;-60
2023/03/23 03:07:37;;;;;;;0.00;0.00;;;13.90;90.70;;;;;;4930147;28;20200;-60
2023/03/23 03:10:15;;;;;;;0.00;0.00;;;14.00;90.70;;;;;;4972640;28;20211;-60
2023/03/23 03:12:55;;;;;;;0.00;0.00;;;14.00;90.80;;;;;;4968315;28;20288;-61
2023/03/23 03:15:33;;;;;;;0.00;0.00;;;14.00;90.80;;;;;;4973779;28;20179;-60
2023/03/23 03:18:11;;;;;;;0.00;0.00;;;14.00;90.80;;;;;;4973105;28;20228;-58
2023/03/23 03:20:42;;;;;;;0.00;0.00;;;14.00;90.90;;;;;;4973788;28;20242;-58
2023/03/23 03:23:12;;;;;;;0.00;0.00;;;14.00;90.80;;;;;;4973215;28;20219;-58
2023/03/23 03:25:40;;;;;;;0.00;0.00;;;14.00;90.70;;;;;;4973830;28;20597;-58
2023/03/23 03:28:06;;;;;;;0.00;0.00;;;14.00;90.60;;;;;;4967525;28;20208;-58
2023/03/23 03:30:35;;;;;;;0.00;0.00;;;14.00;90.50;;;;;;4973422;28;20262;-58
2023/03/23 03:33:03;;;;;;;0.00;0.00;;;14.10;90.80;;;;;;4973106;28;20192;-60
2023/03/23 03:35:30;;;;;;;0.00;0.00;;;14.10;90.70;;;;;;4973467;28;20172;-59
2023/03/23 03:37:57;;;;;;;0.00;0.00;;;14.10;90.60;;;;;;4973227;28;20180;-59
2023/03/23 03:40:23;;;;;;;0.00;0.00;;;14.10;90.60;;;;;;4973189;28;20180;-59
2023/03/23 03:42:49;;;;;;;0.00;0.00;;;14.10;90.50;;;;;;4973712;28;20220;-59
2023/03/23 03:45:18;;;;;;;0.00;0.00;;;14.20;90.40;;;;;;4972868;28;20195;-58
2023/03/23 03:47:44;;;;;;;0.00;0.00;;;14.20;90.50;;;;;;4984028;28;20183;-58
2023/03/23 03:50:09;;;;;;;0.00;0.00;;;14.20;90.40;;;;;;4980454;28;20589;-58
2023/03/23 03:52:36;;;;;;;0.00;0.00;;;14.20;90.50;;;;;;4973126;28;20579;-59
2023/03/23 03:55:02;;;;;;;0.00;0.00;;;14.30;90.60;;;;;;4972200;28;20173;-59
2023/03/23 03:57:27;;;;;;;0.00;0.00;;;14.30;90.50;;;;;;4956967;28;20185;-59
2023/03/23 03:59:53;;;;;;;0.00;0.00;;;14.30;90.50;;;;;;4973342;28;20643;-58
2023/03/23 04:02:19;;;;;;;0.00;0.00;;;14.30;90.60;;;;;;4972639;28;20218;-58
2023/03/23 04:04:49;;;;;;;0.00;0.00;;;14.30;90.50;;;;;;4972883;28;20184;-59
2023/03/23 04:07:18;;;;;;;0.00;0.00;;;14.30;90.60;;;;;;4972592;28;20165;-59
2023/03/23 04:09:46;;;;;;;0.00;0.00;;;14.30;90.50;;;;;;4978473;28;20238;-59
2023/03/23 04:12:12;;;;;;;0.00;0.00;;;14.30;90.40;;;;;;4992362;28;20218;-59
2023/03/23 04:14:38;;;;;;;0.00;0.00;;;14.40;90.20;;;;;;4972520;28;20183;-59
2023/03/23 04:17:04;;;;;;;0.00;0.00;;;14.40;90.30;;;;;;4972990;28;20182;-59
2023/03/23 04:19:32;;;;;;;0.00;0.00;;;14.40;90.20;;;;;;4972817;28;20302;-59
2023/03/23 04:21:58;;;;;;;0.00;0.00;;;14.50;90.20;;;;;;4972696;28;20278;-59
2023/03/23 04:24:24;;;;;;;0.00;0.00;;;14.50;90.20;;;;;;4960223;28;20275;-58
2023/03/23 04:26:54;;;;;;;0.00;0.00;;;14.50;90.30;;;;;;4971542;28;20267;-59
2023/03/23 04:29:20;;;;;;;0.00;0.00;;;14.50;90.30;;;;;;4964337;28;20207;-59
2023/03/23 04:31:46;;;;;;;0.00;0.00;;;14.50;90.30;;;;;;4952273;28;20541;-59
2023/03/23 04:34:14;;;;;;;0.00;0.00;;;14.50;90.40;;;;;;4966565;28;20190;-58
2023/03/23 04:36:40;;;;;;;0.00;0.00;;;14.50;90.30;;;;;;4972992;28;20263;-58
2023/03/23 04:39:09;;;;;;;0.00;0.00;;;14.50;90.40;;;;;;4973150;28;20611;-58
2023/03/23 04:41:39;;;;;;;0.00;0.00;;;14.50;90.50;;;;;;4972764;28;20207;-58
2023/03/23 04:44:05;;;;;;;0.00;0.00;;;14.40;90.60;;;;;;4972241;28;20188;-57
2023/03/23 04:46:31;;;;;;;0.00;0.00;;;14.40;90.60;;;;;;4972556;28;20262;-58
2023/03/23 04:49:01;;;;;;;0.00;0.00;;;14.40;90.70;;;;;;4972795;28;20192;-57
2023/03/23 04:51:29;;;;;;;0.00;0.00;;;14.40;91.00;;;;;;4969583;28;20575;-58
2023/03/23 04:53:55;;;;;;;0.00;0.00;;;14.30;91.20;;;;;;4972314;28;20216;-59
2023/03/23 04:56:20;;;;;;;0.00;0.00;;;14.30;91.40;;;;;;4968672;28;20244;-60
2023/03/23 04:58:46;;;;;;;0.00;0.00;;;14.20;91.50;;;;;;4973058;28;20207;-60
2023/03/23 05:01:17;;;;;;;0.00;0.00;;;14.20;91.50;;;;;;4972240;28;20691;-61
2023/03/23 05:03:43;;;;;;;0.00;0.00;;;14.10;91.50;;;;;;4976072;28;20275;-58
2023/03/23 05:06:09;;;;;;;0.00;0.00;;;14.10;91.70;;;;;;4972194;28;20183;-59
2023/03/23 05:08:38;;;;;;;0.00;0.00;;;14.10;91.90;;;;;;4972415;28;20208;-59
2023/03/23 05:11:05;;;;;;;0.00;0.00;;;14.00;91.80;;;;;;4972160;28;20180;-60
2023/03/23 05:13:31;;;;;;;0.00;0.00;;;14.00;91.80;;;;;;4970458;28;20234;-60
2023/03/23 05:15:57;;;;;;;0.00;0.00;;;14.00;92.00;;;;;;4985466;28;20184;-60
2023/03/23 05:18:23;;;;;;;0.00;0.00;;;14.00;92.10;;;;;;4971462;28;20235;-60
2023/03/23 05:20:48;;;;;;;0.00;0.00;;;14.00;92.10;;;;;;4971833;28;20184;-60
2023/03/23 05:23:15;;;;;;;0.00;0.00;;;14.00;92.10;;;;;;4971886;28;20276;-60
2023/03/23 05:25:41;;;;;;;0.00;0.00;;;14.00;92.10;;;;;;4972020;28;20267;-59
2023/03/23 05:28:08;;;;;;;0.00;0.00;;;13.90;92.20;;;;;;4972076;28;20184;-60
2023/03/23 05:30:34;;;;;;;0.00;0.00;;;13.90;92.10;;;;;;4972166;28;20258;-60
2023/03/23 05:33:00;;;;;;;0.00;0.00;;;14.00;91.80;;;;;;4971903;28;20202;-59
2023/03/23 05:35:27;;;;;;;0.00;0.00;;;14.00;91.80;;;;;;4972044;28;20659;-60
2023/03/23 05:37:53;;;;;;;0.00;0.00;;;14.10;92.10;;;;;;4971727;28;20176;-58
2023/03/23 05:40:20;;;;;;;0.00;0.00;;;14.20;92.60;;;;;;4972715;28;20176;-59
2023/03/23 05:42:45;;;;;;;0.00;0.00;;;14.30;93.20;;;;;;4975854;28;20222;-58
2023/03/23 05:45:11;;;;;;;0.00;0.00;;;14.30;93.80;;;;;;4974376;28;20176;-58
2023/03/23 05:47:41;;;;;;;0.00;0.00;;;14.20;93.90;;;;;;4956799;28;20184;-58
2023/03/23 05:50:08;;;;;;;0.00;0.00;;;14.20;94.60;;;;;;4956596;28;20211;-58
2023/03/23 05:52:36;;;;;;;0.00;0.00;;;14.10;94.90;;;;;;4956610;28;20216;-59
2023/03/23 05:55:03;;;;;;;0.00;0.00;;;14.00;95.50;;;;;;4956482;28;20173;-58
2023/03/23 05:57:29;;;;;;;0.00;0.00;;;13.90;95.80;;;;;;4967688;28;20195;-59
2023/03/23 05:59:55;;;;;;;0.00;0.00;;;13.80;96.60;;;;;;4975747;28;20188;-59
2023/03/23 06:02:23;;;;;;;0.00;0.00;;;13.80;96.50;;;;;;4974565;28;20208;-59
2023/03/23 06:04:48;;;;;;;0.00;0.00;;;13.70;96.80;;;;;;4975293;28;20536;-59
2023/03/23 06:07:14;;;;;;;0.00;0.00;;;13.70;97.50;;;;;;4975457;28;20172;-59
2023/03/23 06:09:41;;;;;;;0.00;0.00;;;13.60;97.80;;;;;;4974995;28;20197;-59
2023/03/23 06:12:09;;;;;;;0.00;0.00;;;13.60;98.00;;;;;;4974915;28;20315;-59
2023/03/23 06:14:35;;;;;;;0.00;0.00;;;13.60;98.50;;;;;;4974892;28;20600;-59
2023/03/23 06:17:00;;;;;;;0.00;0.00;;;13.60;99.10;;;;;;4974965;28;20183;-59
2023/03/23 06:19:26;;;;;;;0.00;0.00;;;13.60;99.80;;;;;;4974843;28;20699;-60
2023/03/23 06:21:54;;;;;;;0.00;0.00;;;13.50;99.90;;;;;;4975227;28;20263;-58
2023/03/23 06:24:21;;;;;;;0.00;0.00;;;13.50;99.90;;;;;;4974436;28;20279;-59
2023/03/23 06:26:47;;;;;;;0.00;0.00;;;13.50;99.90;;;;;;4975305;28;20534;-59
2023/03/23 06:29:13;;;;;;;0.00;0.00;;;13.50;99.90;;;;;;4975335;28;20182;-58
2023/03/23 06:31:46;;;;;;;0.00;0.00;;;13.40;99.90;;;;;;4975221;28;20172;-59
2023/03/23 06:34:11;;;;;;;0.00;0.00;;;13.40;99.90;;;;;;4975219;28;20652;-59
2023/03/23 06:36:38;;;;;;;0.00;0.00;;;13.40;99.90;;;;;;4975051;28;20172;-59
2023/03/23 06:39:04;;;;;;;0.00;0.00;;;13.40;99.90;;;;;;4975065;28;20272;-59
2023/03/23 06:41:33;;;;;;;0.00;0.00;;;13.40;99.90;;;;;;4975112;28;20168;-58
2023/03/23 06:43:59;;;;;;;0.00;0.00;;;13.50;99.90;;;;;;4974987;28;20474;-59
2023/03/23 06:46:25;;;;;;;0.00;0.00;;;13.50;99.90;;;;;;4975070;28;20235;-58
2023/03/23 06:48:51;;;;;;;0.00;0.00;;;13.50;99.90;;;;;;4974980;28;20272;-59
2023/03/23 06:51:17;;;;;;;0.10;0.10;;;13.50;99.90;;;;;;4974477;28;20255;-58
2023/03/23 06:53:43;;;;;;;0.00;0.00;;;13.50;99.90;;;;;;4974505;28;20176;-59
2023/03/23 06:56:09;;;;;;;0.00;0.00;;;13.50;99.90;;;;;;4974542;28;20184;-59
2023/03/23 06:58:35;;;;;;;0.00;0.00;;;13.40;99.90;;;;;;4974843;28;20173;-59
2023/03/23 07:01:00;;;;;;;0.00;0.00;;;13.40;99.90;;;;;;4974677;28;20176;-59
2023/03/23 07:03:27;;;;;;;0.00;0.00;;;13.30;99.90;;;;;;4974815;28;20223;-59
2023/03/23 07:05:53;;;;;;;0.03;0.03;;;13.30;99.90;;;;;;4974689;28;20211;-59
2023/03/23 07:08:20;;;;;;;0.05;0.05;;;13.30;99.90;;;;;;4974615;28;20192;-59
2023/03/23 07:10:46;;;;;;;0.00;0.00;;;13.20;99.90;;;;;;4974803;28;20705;-59
2023/03/23 07:13:11;;;;;;;0.00;0.00;;;13.20;99.90;;;;;;4974747;28;20176;-59
2023/03/23 07:15:39;;;;;;;0.03;0.03;;;13.10;99.90;;;;;;4974977;28;20635;-59
2023/03/23 07:18:05;;;;;;;0.00;0.00;;;13.10;99.90;;;;;;4974654;28;20924;-59
2023/03/23 07:20:31;;;;;;;0.00;0.00;;;13.00;99.90;;;;;;4974924;28;20263;-59
2023/03/23 07:22:56;;;;;;;0.00;0.00;;;13.00;99.90;;;;;;4974158;28;20582;-59
2023/03/23 07:25:22;;;;;;;0.00;0.00;;;13.00;99.90;;;;;;4974304;28;20183;-59
2023/03/23 07:27:48;;;;;;;0.00;0.00;;;12.90;99.90;;;;;;4974183;28;20180;-59
2023/03/23 07:30:14;;;;;;;0.00;0.00;;;12.90;99.90;;;;;;4974232;28;20184;-59
2023/03/23 07:32:41;;;;;;;0.00;0.00;;;12.90;99.90;;;;;;4974221;28;20580;-59
2023/03/23 07:35:07;;;;;;;0.32;0.32;;;12.90;99.90;;;;;;4974067;28;20188;-59
2023/03/23 07:37:33;;;;;;;0.00;0.00;;;13.00;99.90;;;;;;4974181;28;20168;-59
2023/03/23 07:39:59;;;;;;;0.00;0.00;;;13.00;99.90;;;;;;4974023;28;20184;-59
2023/03/23 07:42:24;;;;;;;0.00;0.00;;;13.10;99.90;;;;;;4974116;28;20247;-59
2023/03/23 07:44:50;;;;;;;0.00;0.00;;;13.20;99.90;;;;;;4973981;28;20661;-59
2023/03/23 07:47:17;;;;;;;0.00;0.00;;;13.20;99.90;;;;;;4973936;28;20612;-59
2023/03/23 07:49:43;;;;;;;0.00;0.00;;;13.20;99.90;;;;;;4974015;28;20247;-59
2023/03/23 07:52:10;;;;;;;0.00;0.00;;;13.30;99.90;;;;;;4973677;28;20647;-60
2023/03/23 07:54:36;;;;;;;0.00;0.00;;;13.20;99.90;;;;;;4973859;28;20180;-59
2023/03/23 07:57:02;;;;;;;0.00;0.00;;;13.20;99.90;;;;;;4973671;28;20530;-59
2023/03/23 07:59:27;;;;;;;0.00;0.00;;;13.20;99.90;;;;;;4973698;28;20259;-59
2023/03/23 08:01:53;;;;;;;0.05;0.05;;;13.20;99.90;;;;;;4973806;28;20339;-59
2023/03/23 08:04:18;;;;;;;0.00;0.00;;;13.20;99.90;;;;;;4973856;28;20191;-59
2023/03/23 08:06:45;;;;;;;0.00;0.00;;;13.30;99.90;;;;;;4974030;28;20187;-59
2023/03/23 08:09:11;;;;;;;0.00;0.00;;;13.30;99.90;;;;;;4973867;28;20184;-59
2023/03/23 08:11:38;;;;;;;0.00;0.00;;;13.30;99.90;;;;;;4973968;28;20180;-60
2023/03/23 08:14:03;;;;;;;0.00;0.00;;;13.30;99.90;;;;;;4973847;28;20612;-59
2023/03/23 08:16:29;;;;;;;0.00;0.00;;;13.30;99.90;;;;;;4973711;28;20251;-59
2023/03/23 08:18:56;;;;;;;0.00;0.00;;;13.30;99.90;;;;;;4973551;28;20232;-59
2023/03/23 08:21:22;;;;;;;0.00;0.00;;;13.20;99.90;;;;;;4973532;28;20176;-59
2023/03/23 08:23:47;;;;;;;0.00;0.00;;;13.20;99.90;;;;;;4973506;28;20227;-59
2023/03/23 08:26:15;;;;;;;0.10;0.10;;;13.20;99.90;;;;;;4973506;28;20191;-59
2023/03/23 08:28:40;;;;;;;0.00;0.00;;;13.30;99.90;;;;;;4973444;28;20211;-59
2023/03/23 08:31:11;;;;;;;0.00;0.00;;;13.30;99.90;;;;;;4973479;28;20308;-60
2023/03/23 08:33:38;;;;;;;0.00;0.00;;;13.30;99.90;;;;;;4973462;28;20180;-59
2023/03/23 08:36:04;;;;;;;0.00;0.00;;;13.30;99.90;;;;;;4973383;28;20207;-59
2023/03/23 08:38:30;;;;;;;0.00;0.00;;;13.30;99.90;;;;;;4972967;28;20216;-59
2023/03/23 08:41:01;;;;;;;0.00;0.00;;;13.30;99.90;;;;;;4973319;28;20187;-59
2023/03/23 08:43:27;;;;;;;0.00;0.00;;;13.30;99.90;;;;;;4973252;28;20247;-59
2023/03/23 08:45:53;;;;;;;0.00;0.00;;;13.30;99.90;;;;;;4973207;28;20188;-59
2023/03/23 08:48:19;;;;;;;0.00;0.00;;;13.30;99.90;;;;;;4973112;28;20605;-61
2023/03/23 08:50:45;;;;;;;0.00;0.00;;;13.30;99.90;;;;;;4973085;28;20636;-59
2023/03/23 08:53:11;;;;;;;0.00;0.00;;;13.40;99.90;;;;;;4955603;28;20203;-58
2023/03/23 08:55:38;;;;;;;0.00;0.00;;;13.40;99.90;;;;;;4973071;28;20682;-59
2023/03/23 08:58:04;;;;;;;0.00;0.00;;;13.50;99.90;;;;;;4972997;28;20180;-58
2023/03/23 09:00:30;;;;;;;0.00;0.00;;;13.60;99.90;;;;;;4955535;28;20521;-58
2023/03/23 09:02:56;;;;;;;0.00;0.00;;;13.60;99.90;;;;;;4972834;28;20576;-58
2023/03/23 09:05:26;;;;;;;0.00;0.00;;;13.60;99.90;;;;;;4972971;28;20226;-58
2023/03/23 09:07:54;;;;;;;0.00;0.00;;;13.60;99.90;;;;;;4972837;28;20177;-58
2023/03/23 09:10:22;;;;;;;0.00;0.00;;;13.60;99.90;;;;;;4972679;28;20259;-58
2023/03/23 09:12:48;;;;;;;0.00;0.00;;;13.60;99.90;;;;;;4972607;28;20590;-58
2023/03/23 09:15:16;;;;;;;0.00;0.00;;;13.60;99.90;;;;;;4972157;28;20169;-58
2023/03/23 09:17:44;;;;;;;0.00;0.00;;;13.70;99.90;;;;;;4972505;28;20306;-59
2023/03/23 09:20:11;;;;;;;0.00;0.00;;;13.70;99.90;;;;;;4972395;28;20303;-58
2023/03/23 09:22:53;;;;;;;0.00;0.00;;;13.70;99.90;;;;;;4972449;28;20220;-58
2023/03/23 09:25:21;;;;;;;0.00;0.00;;;13.70;99.90;;;;;;4972499;28;20187;-58
2023/03/23 09:27:53;;;;;;;0.00;0.00;;;13.70;99.90;;;;;;4972491;28;20584;-58
2023/03/23 09:30:20;;;;;;;0.00;0.00;;;13.70;99.90;;;;;;4972403;28;20179;-59
2023/03/23 09:32:47;;;;;;;0.00;0.00;;;13.70;99.90;;;;;;4972484;28;20176;-59
2023/03/23 09:35:15;;;;;;;0.00;0.00;;;13.70;99.90;;;;;;4972344;28;20172;-59
2023/03/23 09:37:43;;;;;;;0.40;0.40;;;13.70;99.90;;;;;;4972493;28;20180;-60
2023/03/23 09:40:14;;;;;;;0.00;0.00;;;13.60;99.90;;;;;;4972183;28;20184;-59
2023/03/23 09:42:58;;;;;;;0.00;0.00;;;13.50;99.90;;;;;;4972540;28;20621;-59
2023/03/23 09:45:55;;;;;;;0.00;0.00;;;13.50;99.90;;;;;;4972555;28;20234;-59
2023/03/23 09:48:32;;;;;;;0.00;0.00;;;13.30;99.90;;;;;;4972393;28;20184;-59
2023/03/23 09:51:08;;;;;;;0.00;0.00;;;13.20;99.90;;;;;;4972104;28;20631;-59
2023/03/23 09:53:39;;;;;;;0.00;0.00;;;13.10;99.90;;;;;;4955186;28;20179;-59
2023/03/23 09:56:11;;;;;;;0.00;0.00;;;13.00;99.90;;;;;;4972390;28;20177;-59
2023/03/23 09:58:46;;;;;;;0.00;0.00;;;12.90;99.90;;;;;;4972525;28;20192;-59
2023/03/23 10:01:19;;;;;;;0.00;0.00;;;12.90;99.90;;;;;;4972220;28;20190;-59
2023/03/23 10:03:46;;;;;;;0.00;0.00;;;12.90;99.90;;;;;;4972299;28;20212;-59
2023/03/23 10:06:19;;;;;;;0.00;0.00;;;12.90;99.90;;;;;;4972203;28;20531;-58
2023/03/23 10:08:54;;;;;;;0.00;0.00;;;12.90;99.90;;;;;;4972315;28;20246;-58
2023/03/23 10:11:45;;;;;;;0.00;0.00;;;13.00;99.90;;;;;;4956052;28;20179;-58
2023/03/23 10:14:27;;;;;;;0.00;0.00;;;13.00;99.90;;;;;;4972069;28;20181;-58
2023/03/23 10:17:13;;;;;;;0.00;0.00;;;13.10;99.90;;;;;;4972326;28;20733;-59
2023/03/23 10:20:20;;;;;;;0.00;0.00;;;13.20;99.90;;;;;;4972416;28;20320;-58
2023/03/23 10:23:01;;;;;;;0.00;0.00;;;13.20;99.90;;;;;;4972179;28;20266;-59
2023/03/23 10:25:35;;;;;;;0.00;0.00;;;13.20;99.90;;;;;;4954752;28;20180;-59
2023/03/23 10:28:12;;;;;;;0.00;0.00;;;13.20;99.90;;;;;;4974236;28;20238;-59
2023/03/23 10:30:43;;;;;;;0.00;0.00;;;13.20;99.90;;;;;;4975822;28;20204;-60
2023/03/23 10:33:21;;;;;;;0.00;0.00;;;13.10;99.90;;;;;;4975567;28;20558;-59
2023/03/23 10:36:00;;;;;;;0.00;0.00;;;13.10;99.90;;;;;;4959027;28;20662;-59
2023/03/23 10:38:37;;;;;;;0.00;0.00;;;13.10;99.90;;;;;;4975613;28;20297;-59
2023/03/23 10:41:11;;;;;;;0.00;0.00;;;13.20;99.90;;;;;;4975450;28;20665;-59
2023/03/23 10:43:39;;;;;;;0.00;0.00;;;13.10;99.90;;;;;;4975528;28;20229;-59
2023/03/23 10:46:31;;;;;;;0.00;0.00;;;13.10;99.90;;;;;;4975412;28;20259;-59
2023/03/23 10:48:59;;;;;;;0.00;0.00;;;13.10;99.90;;;;;;4975427;28;20212;-59
2023/03/23 10:51:31;;;;;;;0.00;0.00;;;13.10;99.90;;;;;;4975434;28;20223;-59
2023/03/23 10:54:00;;;;;;;0.00;0.00;;;13.10;99.90;;;;;;4975217;28;20650;-59
2023/03/23 10:56:29;;;;;;;0.00;0.00;;;13.00;99.90;;;;;;4975348;28;20187;-59
2023/03/23 10:58:55;;;;;;;0.00;0.00;;;13.10;99.90;;;;;;4975190;28;20180;-59
2023/03/23 11:01:30;;;;;;;0.45;0.45;;;13.20;99.90;;;;;;4975217;28;20180;-59
2023/03/23 11:03:56;;;;;;;0.00;0.00;;;13.30;99.90;;;;;;4975067;28;20211;-59
2023/03/23 11:06:30;;;;;;;0.00;0.00;;;13.30;99.90;;;;;;4975156;28;20183;-59
2023/03/23 11:09:03;;;;;;;0.00;0.00;;;13.40;99.90;;;;;;4975003;28;20573;-59
2023/03/23 11:11:38;;;;;;;0.00;0.00;;;13.50;99.90;;;;;;4974956;28;20637;-59
2023/03/23 11:14:15;;;;;;;0.00;0.00;;;13.60;99.90;;;;;;4974958;28;20734;-60
2023/03/23 11:16:53;;;;;;;0.00;0.00;;;13.50;99.90;;;;;;4974907;28;20178;-59
2023/03/23 11:19:28;;;;;;;0.00;0.00;;;13.50;99.90;;;;;;4974564;28;20266;-59
2023/03/23 11:22:06;;;;;;;0.00;0.00;;;13.40;99.90;;;;;;4974779;28;20194;-59
2023/03/23 11:24:34;;;;;;;0.00;0.00;;;13.40;99.90;;;;;;4974698;28;20184;-59
2023/03/23 11:27:03;;;;;;;0.00;0.00;;;13.40;99.90;;;;;;4974674;28;20211;-59
2023/03/23 11:29:30;;;;;;;0.00;0.00;;;13.40;99.90;;;;;;4974451;28;20184;-59
2023/03/23 11:31:58;;;;;;;1.73;0.55;;;13.40;99.90;;;;;;4974490;28;20537;-59
2023/03/23 11:34:39;;;;;;;0.00;0.00;;;13.40;99.90;;;;;;4974568;28;20647;-59
2023/03/23 11:37:18;;;;;;;0.00;0.00;;;13.40;99.90;;;;;;4974570;28;20175;-59
2023/03/23 11:39:57;;;;;;;0.00;0.00;;;13.50;99.90;;;;;;4974187;28;20172;-59
2023/03/23 11:42:32;;;;;;;0.00;0.00;;;13.50;99.90;;;;;;4974318;28;20200;-59
2023/03/23 11:45:22;;;;;;;0.00;0.00;;;13.40;99.90;;;;;;4974315;28;20230;-60
2023/03/23 11:48:15;;;;;;;0.00;0.00;;;13.50;99.90;;;;;;4974304;28;20181;-59
2023/03/23 11:50:59;;;;;;;0.00;0.00;;;13.40;99.90;;;;;;4974373;28;20231;-59
2023/03/23 11:54:02;;;;;;;0.00;0.00;;;13.50;99.90;;;;;;4974370;28;20198;-59
2023/03/23 11:56:36;;;;;;;0.00;0.00;;;13.50;99.90;;;;;;4974214;28;20206;-61
2023/03/23 11:59:04;;;;;;;0.00;0.00;;;13.60;99.90;;;;;;4973599;28;20639;-60
2023/03/23 12:01:51;;;;;;;0.00;0.00;;;13.60;99.90;;;;;;4974064;28;20180;-58
2023/03/23 12:04:54;;;;;;;0.00;0.00;;;13.60;99.90;;;;;;4973987;28;20266;-58
2023/03/23 12:07:54;;;;;;;0.00;0.00;;;13.70;99.90;;;;;;4973966;28;20190;-58
2023/03/23 12:10:28;;;;;;;0.00;0.00;;;13.80;99.90;;;;;;4973827;28;20712;-58
2023/03/23 12:13:11;;;;;;;0.00;0.00;;;13.90;99.90;;;;;;4973790;28;20183;-59
2023/03/23 12:15:50;;;;;;;0.00;0.00;;;13.90;99.90;;;;;;4973872;28;20203;-59
2023/03/23 12:18:35;;;;;;;0.00;0.00;;;13.80;99.90;;;;;;4973437;28;20387;-58
2023/03/23 12:21:19;;;;;;;0.00;0.00;;;13.80;99.90;;;;;;4973480;28;20643;-58
2023/03/23 12:24:00;;;;;;;0.00;0.00;;;13.80;99.90;;;;;;4973700;28;20258;-59
2023/03/23 12:26:35;;;;;;;0.00;0.00;;;13.90;99.90;;;;;;4973657;28;20215;-59
2023/03/23 12:29:34;;;;;;;0.00;0.00;;;14.00;99.90;;;;;;4973567;28;20203;-58
2023/03/23 12:32:26;;;;;;;0.00;0.00;;;14.10;99.90;;;;;;4973550;28;20187;-58
2023/03/23 12:35:03;;;;;;;0.00;0.00;;;14.30;99.90;;;;;;4973477;28;20636;-58
2023/03/23 12:37:41;;;;;;;0.00;0.00;;;14.40;99.90;;;;;;4973337;28;20195;-59
2023/03/23 12:40:22;;;;;;;0.00;0.00;;;14.40;99.90;;;;;;4973401;28;20176;-58
2023/03/23 12:42:58;;;;;;;0.00;0.00;;;14.40;99.90;;;;;;4973475;28;20231;-58
2023/03/23 12:45:37;;;;;;;0.00;0.00;;;14.40;99.90;;;;;;4973422;28;20198;-58
2023/03/23 12:48:11;;;;;;;0.00;0.00;;;14.40;99.90;;;;;;4973206;28;20176;-58
2023/03/23 12:51:00;;;;;;;0.00;0.00;;;14.40;99.90;;;;;;4972522;28;20173;-59
2023/03/23 12:53:33;;;;;;;0.00;0.00;;;14.30;99.90;;;;;;4973242;28;20184;-59
2023/03/23 12:56:22;;;;;;;0.00;0.00;;;14.30;99.90;;;;;;4973035;28;20743;-58
2023/03/23 12:58:53;;;;;;;0.00;0.00;;;14.30;99.90;;;;;;4972941;28;20195;-59
2023/03/23 13:01:26;;;;;;;0.00;0.00;;;14.30;99.90;;;;;;4972973;28;20247;-58
2023/03/23 13:04:07;;;;;;;0.00;0.00;;;14.20;99.90;;;;;;4972785;28;20690;-58
2023/03/23 13:06:42;;;;;;;0.00;0.00;;;14.20;99.90;;;;;;4972970;28;20183;-59